Time;durP1;ratioP1;P1;durP2;ratioP2;P2;SDS_P1;SDS_P2;PMS_P1;PMS_P2;Temp;Humidity;BMP_temperature;BMP_pressure;BME280_temperature;BME280_humidity;BME280_pressure;Samples;Min_cycle;Max_cycle;Signal;HPM_P1;HPM_P2
2024/01/02 00:00:32;;;;;;;1.60;1.00;;;4.60;99.90;;;;;;5059103;28;20029;-66
2024/01/02 00:03:04;;;;;;;3.45;1.00;;;4.50;99.90;;;;;;5058046;28;20047;-67
2024/01/02 00:05:36;;;;;;;3.85;1.75;;;4.50;99.90;;;;;;5056114;28;20095;-67
2024/01/02 00:08:08;;;;;;;2.72;0.88;;;4.50;99.90;;;;;;5052855;28;20516;-67
2024/01/02 00:10:35;;;;;;;2.47;1.15;;;4.50;99.90;;;;;;5053579;28;20163;-67
2024/01/02 00:13:07;;;;;;;3.38;1.05;;;4.50;99.90;;;;;;5060483;28;20562;-66
2024/01/02 00:15:39;;;;;;;3.10;0.85;;;4.40;99.90;;;;;;5061261;28;20038;-66
2024/01/02 00:18:11;;;;;;;2.67;1.20;;;4.40;99.90;;;;;;5063920;28;20041;-67
2024/01/02 00:20:38;;;;;;;2.88;1.05;;;4.50;99.90;;;;;;5064196;28;20599;-66
2024/01/02 00:23:05;;;;;;;3.65;1.42;;;4.50;99.90;;;;;;5066119;28;20124;-67
2024/01/02 00:25:37;;;;;;;2.15;0.98;;;4.50;99.90;;;;;;5068232;28;20041;-67
2024/01/02 00:28:04;;;;;;;3.15;1.60;;;4.40;99.90;;;;;;5044518;28;20400;-67
2024/01/02 00:30:36;;;;;;;2.25;0.98;;;4.50;99.90;;;;;;5056685;28;20039;-66
2024/01/02 00:33:09;;;;;;;1.20;0.80;;;4.50;99.90;;;;;;5051814;28;20045;-67
2024/01/02 00:35:41;;;;;;;2.42;0.90;;;4.50;99.90;;;;;;5039358;28;20291;-66
2024/01/02 00:38:14;;;;;;;2.03;0.90;;;4.50;99.90;;;;;;5056010;28;20037;-67
2024/01/02 00:40:46;;;;;;;1.65;0.80;;;4.50;99.90;;;;;;5060274;28;20045;-66
2024/01/02 00:43:12;;;;;;;3.70;1.63;;;4.50;99.90;;;;;;5064335;28;20132;-67
2024/01/02 00:45:44;;;;;;;3.15;1.10;;;4.50;99.90;;;;;;5063133;28;20057;-66
2024/01/02 00:48:16;;;;;;;2.30;1.00;;;4.60;99.90;;;;;;5061943;28;20056;-67
2024/01/02 00:50:48;;;;;;;2.53;1.10;;;4.60;99.90;;;;;;5073648;28;20052;-66
2024/01/02 00:53:15;;;;;;;1.98;0.95;;;4.60;99.90;;;;;;5057962;28;20098;-66
2024/01/02 00:55:47;;;;;;;3.15;1.73;;;4.60;99.90;;;;;;5069429;28;20405;-67
2024/01/02 00:58:19;;;;;;;2.28;0.80;;;4.60;99.90;;;;;;5053081;28;20596;-66
2024/01/02 01:00:51;;;;;;;2.80;0.80;;;4.60;99.90;;;;;;5037609;28;20140;-66
2024/01/02 01:03:17;;;;;;;2.85;0.80;;;4.60;99.90;;;;;;5052181;28;20136;-66
2024/01/02 01:05:49;;;;;;;3.83;0.70;;;4.60;99.90;;;;;;5056106;28;20049;-66
2024/01/02 01:08:21;;;;;;;3.80;1.85;;;4.60;99.90;;;;;;5064913;28;20052;-66
2024/01/02 01:10:53;;;;;;;2.55;0.93;;;4.60;99.90;;;;;;5057777;28;20044;-66
2024/01/02 01:13:25;;;;;;;1.92;0.85;;;4.60;99.90;;;;;;5041687;28;20113;-66
2024/01/02 01:15:57;;;;;;;3.08;1.23;;;4.60;99.90;;;;;;5063065;28;20048;-66
2024/01/02 01:18:24;;;;;;;3.58;1.00;;;4.70;99.90;;;;;;5065220;28;20036;-66
2024/01/02 01:20:56;;;;;;;2.28;0.73;;;4.70;99.90;;;;;;5068905;28;20155;-66
2024/01/02 01:23:23;;;;;;;1.80;0.60;;;4.60;99.90;;;;;;5069440;28;20139;-66
2024/01/02 01:25:50;;;;;;;2.33;0.85;;;4.70;99.90;;;;;;5072338;28;20036;-66
2024/01/02 01:28:17;;;;;;;1.65;0.60;;;4.70;99.90;;;;;;5063004;28;20125;-66
2024/01/02 01:30:44;;;;;;;1.40;0.80;;;4.70;99.90;;;;;;5068984;28;20072;-65
2024/01/02 01:33:11;;;;;;;2.30;0.70;;;4.70;99.90;;;;;;5066760;28;20136;-65
2024/01/02 01:35:43;;;;;;;3.03;0.73;;;4.70;99.90;;;;;;5057060;28;20048;-66
2024/01/02 01:38:15;;;;;;;1.15;0.60;;;4.80;99.90;;;;;;5059845;28;20048;-66
2024/01/02 01:40:48;;;;;;;2.70;0.90;;;4.80;99.90;;;;;;5064069;28;20119;-66
2024/01/02 01:43:20;;;;;;;1.88;0.85;;;4.80;99.90;;;;;;5050987;28;20061;-68
2024/01/02 01:45:52;;;;;;;1.50;0.68;;;4.80;99.90;;;;;;5056823;28;20052;-65
2024/01/02 01:48:25;;;;;;;1.20;0.63;;;4.80;99.90;;;;;;5051244;28;20036;-65
2024/01/02 01:50:57;;;;;;;2.78;0.70;;;4.80;99.90;;;;;;5048933;28;20402;-66
2024/01/02 01:53:25;;;;;;;2.17;0.70;;;4.80;99.90;;;;;;5051681;28;20065;-66
2024/01/02 01:55:52;;;;;;;5.40;0.77;;;4.90;99.90;;;;;;5054081;28;20037;-66
2024/01/02 01:58:26;;;;;;;1.60;0.80;;;4.90;99.90;;;;;;5054361;28;20052;-66
2024/01/02 02:00:57;;;;;;;2.92;0.60;;;4.90;99.90;;;;;;5073424;28;20045;-65
2024/01/02 02:03:31;;;;;;;1.40;0.60;;;4.90;99.90;;;;;;5057328;28;20055;-66
2024/01/02 02:06:03;;;;;;;1.20;0.70;;;4.90;99.90;;;;;;5060907;28;20048;-66
2024/01/02 02:08:36;;;;;;;2.25;0.98;;;4.90;99.90;;;;;;5062361;28;20090;-65
2024/01/02 02:11:10;;;;;;;1.58;0.75;;;5.00;99.90;;;;;;5064569;28;20039;-66
2024/01/02 02:13:43;;;;;;;4.95;0.90;;;5.00;99.90;;;;;;5065999;28;20041;-66
2024/01/02 02:16:15;;;;;;;1.50;0.80;;;5.00;99.90;;;;;;5052690;28;20501;-66
2024/01/02 02:18:47;;;;;;;3.10;0.68;;;5.00;99.90;;;;;;5069731;28;20040;-66
2024/01/02 02:21:19;;;;;;;2.85;0.80;;;5.00;99.90;;;;;;5048121;28;20063;-66
2024/01/02 02:23:51;;;;;;;1.75;0.88;;;5.00;99.90;;;;;;5053302;28;20147;-66
2024/01/02 02:26:23;;;;;;;2.75;1.15;;;5.00;99.90;;;;;;5056173;28;20127;-66
2024/01/02 02:28:59;;;;;;;1.98;1.52;;;5.00;99.90;;;;;;5056867;28;20048;-66
2024/01/02 02:31:32;;;;;;;2.65;1.10;;;5.10;99.90;;;;;;5075926;28;20045;-66
2024/01/02 02:34:04;;;;;;;3.58;0.95;;;5.10;99.90;;;;;;5058761;28;20049;-67
2024/01/02 02:36:30;;;;;;;3.13;0.70;;;5.10;99.90;;;;;;5057051;28;20040;-66
2024/01/02 02:38:57;;;;;;;2.10;1.30;;;5.10;99.90;;;;;;5038330;28;20543;-66
2024/01/02 02:41:29;;;;;;;3.03;0.80;;;5.10;99.90;;;;;;5053342;28;20115;-66
2024/01/02 02:44:01;;;;;;;2.53;1.05;;;5.10;99.90;;;;;;5080125;28;20386;-66
2024/01/02 02:46:33;;;;;;;1.83;0.55;;;5.10;99.90;;;;;;5051974;28;20067;-66
2024/01/02 02:49:05;;;;;;;2.05;0.55;;;5.20;99.90;;;;;;5052586;28;20055;-66
2024/01/02 02:51:37;;;;;;;3.63;0.80;;;5.20;99.90;;;;;;5054266;28;20528;-66
2024/01/02 02:54:09;;;;;;;2.30;0.65;;;5.20;99.90;;;;;;5063151;28;20040;-65
2024/01/02 02:56:43;;;;;;;2.15;0.50;;;5.20;99.90;;;;;;5057361;28;20073;-66
2024/01/02 02:59:15;;;;;;;;;;;5.20;99.90;;;;;;5057620;28;20044;-66
2024/01/02 03:01:42;;;;;;;1.75;0.60;;;5.20;99.90;;;;;;5062479;28;20366;-66
2024/01/02 03:04:09;;;;;;;3.55;0.88;;;5.20;99.90;;;;;;5063275;28;20044;-66
2024/01/02 03:06:41;;;;;;;2.38;0.68;;;5.20;99.90;;;;;;5056955;28;20037;-65
2024/01/02 03:09:12;;;;;;;2.55;0.85;;;5.20;99.90;;;;;;5068787;28;20052;-66
2024/01/02 03:11:39;;;;;;;2.80;0.60;;;5.20;99.90;;;;;;5069955;28;20072;-66
2024/01/02 03:14:11;;;;;;;3.70;0.77;;;5.20;99.90;;;;;;5047317;28;20500;-66
2024/01/02 03:16:43;;;;;;;3.83;0.70;;;5.30;99.90;;;;;;5054704;28;20049;-65
2024/01/02 03:19:10;;;;;;;3.28;0.73;;;5.30;99.90;;;;;;5056204;28;20049;-65
2024/01/02 03:21:41;;;;;;;2.08;0.50;;;5.30;99.90;;;;;;5037610;28;20417;-66
2024/01/02 03:24:08;;;;;;;3.03;0.70;;;5.40;99.90;;;;;;5060126;28;20048;-66
2024/01/02 03:26:40;;;;;;;1.73;0.60;;;5.40;99.90;;;;;;5060205;28;20123;-66
2024/01/02 03:29:12;;;;;;;1.08;0.50;;;5.50;99.90;;;;;;5063796;28;20040;-66
2024/01/02 03:31:45;;;;;;;1.33;0.70;;;5.50;99.90;;;;;;5054142;28;20416;-66
2024/01/02 03:34:16;;;;;;;3.22;0.93;;;5.50;99.90;;;;;;5065611;28;20181;-66
2024/01/02 03:36:48;;;;;;;2.20;0.95;;;5.50;99.90;;;;;;5050721;28;20132;-66
2024/01/02 03:39:20;;;;;;;3.30;0.85;;;5.50;99.90;;;;;;5051403;28;20052;-66
2024/01/02 03:41:52;;;;;;;1.92;0.70;;;5.50;99.90;;;;;;5050896;28;20043;-66
2024/01/02 03:44:19;;;;;;;1.02;0.65;;;5.50;99.90;;;;;;5053393;28;20051;-66
2024/01/02 03:46:51;;;;;;;1.10;0.65;;;5.50;99.90;;;;;;5061323;28;20041;-66
2024/01/02 03:49:23;;;;;;;3.60;0.60;;;5.50;99.90;;;;;;5073483;28;20068;-65
2024/01/02 03:51:56;;;;;;;1.60;0.60;;;5.50;99.90;;;;;;5058010;28;20052;-66
2024/01/02 03:54:28;;;;;;;2.20;0.60;;;5.50;99.90;;;;;;5059535;28;20036;-66
2024/01/02 03:57:00;;;;;;;1.48;0.43;;;5.50;99.90;;;;;;5076819;28;20045;-66
2024/01/02 03:59:34;;;;;;;2.35;0.60;;;5.50;99.90;;;;;;5049548;28;20102;-66
2024/01/02 04:02:01;;;;;;;1.95;0.55;;;5.50;99.90;;;;;;5047498;28;20519;-66
2024/01/02 04:04:33;;;;;;;1.13;0.60;;;5.50;99.90;;;;;;5049359;28;20418;-66
2024/01/02 04:07:05;;;;;;;2.58;0.57;;;5.40;99.90;;;;;;5051100;28;20045;-66
2024/01/02 04:09:37;;;;;;;2.83;0.68;;;5.40;99.90;;;;;;5055393;28;20051;-66
2024/01/02 04:12:09;;;;;;;1.55;0.57;;;5.30;99.90;;;;;;5062850;28;20041;-66
2024/01/02 04:14:41;;;;;;;2.60;0.80;;;5.20;99.90;;;;;;5053680;28;20052;-66
2024/01/02 04:17:13;;;;;;;1.27;0.50;;;5.10;99.90;;;;;;5058808;28;20123;-66
2024/01/02 04:19:44;;;;;;;1.55;0.30;;;5.20;99.90;;;;;;5061055;28;20104;-66
2024/01/02 04:22:16;;;;;;;0.95;0.70;;;5.20;99.90;;;;;;5061240;28;20045;-66
2024/01/02 04:24:48;;;;;;;0.65;0.50;;;5.30;99.90;;;;;;5064643;28;20063;-66
2024/01/02 04:27:20;;;;;;;0.75;0.47;;;5.30;99.90;;;;;;5066117;28;20060;-66
2024/01/02 04:29:52;;;;;;;0.63;0.40;;;5.30;99.90;;;;;;5048413;28;20532;-66
2024/01/02 04:32:24;;;;;;;2.47;0.30;;;5.40;99.90;;;;;;5051493;28;20557;-66
2024/01/02 04:34:56;;;;;;;3.22;0.43;;;5.40;99.90;;;;;;5052362;28;20041;-66
2024/01/02 04:37:28;;;;;;;0.32;0.20;;;5.40;99.90;;;;;;5053858;28;20047;-66
2024/01/02 04:39:59;;;;;;;1.25;0.60;;;5.50;99.90;;;;;;5062436;28;20036;-66
2024/01/02 04:42:35;;;;;;;1.15;0.30;;;5.70;99.90;;;;;;5056888;28;20073;-66
2024/01/02 04:45:08;;;;;;;1.25;0.40;;;5.70;99.90;;;;;;5049786;28;20057;-66
2024/01/02 04:47:39;;;;;;;1.77;1.13;;;5.80;99.90;;;;;;5062039;28;20044;-66
2024/01/02 04:50:11;;;;;;;0.40;0.30;;;5.80;99.90;;;;;;5059016;28;20045;-66
2024/01/02 04:52:43;;;;;;;1.77;0.82;;;5.80;99.90;;;;;;5057228;28;20664;-66
2024/01/02 04:55:15;;;;;;;0.30;0.20;;;5.80;99.90;;;;;;5052385;28;20069;-66
2024/01/02 04:57:42;;;;;;;0.55;0.50;;;5.80;99.90;;;;;;5051379;28;20049;-66
2024/01/02 05:00:10;;;;;;;1.60;0.32;;;5.90;99.90;;;;;;5054990;28;20123;-66
2024/01/02 05:02:42;;;;;;;0.50;0.40;;;5.80;99.90;;;;;;5061818;28;20055;-66
2024/01/02 05:05:14;;;;;;;1.95;0.40;;;5.70;99.90;;;;;;5059526;28;20045;-66
2024/01/02 05:07:41;;;;;;;1.08;0.40;;;5.70;99.90;;;;;;5063557;28;20105;-66
2024/01/02 05:10:12;;;;;;;0.75;0.30;;;5.60;99.90;;;;;;5060638;28;20048;-66
2024/01/02 05:12:45;;;;;;;0.73;0.40;;;5.50;99.90;;;;;;5058080;28;20500;-66
2024/01/02 05:15:11;;;;;;;1.95;0.50;;;5.40;99.90;;;;;;5059380;28;20113;-67
2024/01/02 05:17:43;;;;;;;1.65;0.40;;;5.40;99.90;;;;;;5067280;28;20051;-66
2024/01/02 05:20:11;;;;;;;0.47;0.40;;;5.30;99.90;;;;;;5070097;28;20043;-66
2024/01/02 05:22:42;;;;;;;2.78;0.40;;;5.20;99.90;;;;;;5071176;28;20041;-66
2024/01/02 05:25:15;;;;;;;0.95;0.43;;;5.10;99.90;;;;;;5071077;28;20408;-66
2024/01/02 05:27:46;;;;;;;0.55;0.30;;;5.10;99.90;;;;;;5069788;28;20052;-66
2024/01/02 05:30:18;;;;;;;1.67;0.82;;;5.10;99.90;;;;;;5066932;28;20050;-65
2024/01/02 05:32:51;;;;;;;0.63;0.40;;;5.00;99.90;;;;;;5058186;28;20110;-66
2024/01/02 05:35:22;;;;;;;0.77;0.40;;;5.00;99.90;;;;;;5061878;28;20443;-66
2024/01/02 05:37:49;;;;;;;2.50;0.40;;;4.90;99.90;;;;;;5064061;28;20052;-66
2024/01/02 05:40:16;;;;;;;0.77;0.38;;;4.80;99.90;;;;;;5064287;28;20063;-66
2024/01/02 05:42:48;;;;;;;0.80;0.30;;;4.80;99.90;;;;;;5052859;28;20053;-66
2024/01/02 05:45:19;;;;;;;0.73;0.30;;;4.70;99.90;;;;;;5055021;28;20049;-66
2024/01/02 05:47:51;;;;;;;1.00;0.35;;;4.70;99.90;;;;;;5053989;28;20049;-67
2024/01/02 05:50:18;;;;;;;1.25;0.40;;;4.70;99.90;;;;;;5053465;28;20505;-66
2024/01/02 05:52:50;;;;;;;1.40;0.40;;;4.70;99.90;;;;;;5054995;28;20513;-66
2024/01/02 05:55:22;;;;;;;0.90;0.30;;;4.60;99.90;;;;;;5054025;28;20049;-67
2024/01/02 05:57:54;;;;;;;0.50;0.30;;;4.60;99.90;;;;;;5041337;28;20220;-67
2024/01/02 06:00:26;;;;;;;0.88;0.30;;;4.60;99.90;;;;;;5061778;28;20054;-67
2024/01/02 06:02:58;;;;;;;0.85;0.30;;;4.60;99.90;;;;;;5062838;28;20047;-66
2024/01/02 06:05:25;;;;;;;1.00;0.60;;;4.60;99.90;;;;;;5063630;28;20044;-66
2024/01/02 06:07:57;;;;;;;0.68;0.25;;;4.60;99.90;;;;;;5049188;28;20054;-67
2024/01/02 06:10:29;;;;;;;0.45;0.35;;;4.60;99.90;;;;;;5068454;28;20420;-66
2024/01/02 06:12:55;;;;;;;0.60;0.30;;;4.60;99.90;;;;;;5068700;28;20083;-67
2024/01/02 06:15:27;;;;;;;0.70;0.40;;;4.60;99.90;;;;;;5054530;28;20044;-67
2024/01/02 06:17:59;;;;;;;1.13;0.40;;;4.60;99.90;;;;;;5050690;28;20041;-66
2024/01/02 06:20:31;;;;;;;0.98;0.90;;;4.70;99.90;;;;;;5055446;28;20045;-67
2024/01/02 06:23:03;;;;;;;2.28;0.30;;;4.70;99.90;;;;;;5065360;28;20115;-67
2024/01/02 06:25:35;;;;;;;0.47;0.28;;;4.70;99.90;;;;;;5063901;28;20063;-66
2024/01/02 06:28:07;;;;;;;2.63;0.30;;;4.80;99.90;;;;;;5059894;28;20056;-67
2024/01/02 06:30:39;;;;;;;0.38;0.20;;;4.80;99.90;;;;;;5060288;28;20440;-66
2024/01/02 06:33:12;;;;;;;1.27;0.30;;;4.80;99.90;;;;;;5056959;28;20520;-66
2024/01/02 06:35:43;;;;;;;0.55;0.35;;;4.80;99.90;;;;;;5055914;28;20049;-67
2024/01/02 06:38:16;;;;;;;0.60;0.30;;;4.80;99.90;;;;;;5052083;28;20037;-66
2024/01/02 06:40:48;;;;;;;0.20;0.20;;;4.80;99.90;;;;;;5051936;28;20040;-67
2024/01/02 06:43:20;;;;;;;0.40;0.25;;;4.80;99.90;;;;;;5051547;28;20045;-66
2024/01/02 06:45:52;;;;;;;0.25;0.17;;;4.80;99.90;;;;;;5053023;28;20041;-66
2024/01/02 06:48:24;;;;;;;0.30;0.30;;;4.80;99.90;;;;;;5065293;28;20068;-66
2024/01/02 06:50:55;;;;;;;0.45;0.20;;;4.90;99.90;;;;;;5065304;28;20041;-66
2024/01/02 06:53:27;;;;;;;0.35;0.20;;;4.90;99.90;;;;;;5061214;28;20055;-66
2024/01/02 06:55:59;;;;;;;1.48;0.40;;;4.90;99.90;;;;;;5061808;28;20136;-67
2024/01/02 06:58:26;;;;;;;1.13;0.38;;;4.90;99.90;;;;;;5063201;28;20048;-66
2024/01/02 07:00:58;;;;;;;0.98;0.60;;;4.90;99.90;;;;;;5064538;28;20048;-66
2024/01/02 07:03:30;;;;;;;0.22;0.20;;;5.00;99.90;;;;;;5066187;28;20043;-66
2024/01/02 07:06:02;;;;;;;1.30;0.30;;;5.10;99.90;;;;;;5060720;28;20051;-66
2024/01/02 07:08:34;;;;;;;0.88;0.30;;;5.10;99.90;;;;;;5053590;28;20072;-66
2024/01/02 07:11:06;;;;;;;0.55;0.30;;;5.10;99.90;;;;;;5048245;28;20501;-66
2024/01/02 07:13:38;;;;;;;0.50;0.40;;;5.10;99.90;;;;;;5053427;28;20493;-66
2024/01/02 07:16:10;;;;;;;1.13;0.20;;;5.10;99.90;;;;;;5065022;28;20060;-66
2024/01/02 07:18:42;;;;;;;0.40;0.20;;;5.20;99.90;;;;;;5063560;28;20041;-67
2024/01/02 07:21:14;;;;;;;0.10;0.10;;;5.20;99.90;;;;;;5033689;28;20048;-66
2024/01/02 07:23:41;;;;;;;0.47;0.20;;;5.30;99.90;;;;;;5058360;28;20040;-67
2024/01/02 07:26:13;;;;;;;0.40;0.30;;;5.50;99.90;;;;;;5058011;28;20057;-66
2024/01/02 07:28:45;;;;;;;0.43;0.20;;;5.60;99.90;;;;;;5054065;28;20048;-66
2024/01/02 07:31:18;;;;;;;0.50;0.20;;;5.60;99.90;;;;;;5067679;28;20044;-66
2024/01/02 07:33:50;;;;;;;0.47;0.28;;;5.70;99.90;;;;;;5054367;28;20408;-66
2024/01/02 07:36:22;;;;;;;1.50;0.57;;;5.80;99.90;;;;;;5041082;28;20417;-66
2024/01/02 07:38:54;;;;;;;2.20;0.82;;;5.70;99.90;;;;;;5055982;28;20125;-66
2024/01/02 07:41:20;;;;;;;3.63;1.13;;;5.70;99.90;;;;;;5063914;28;20037;-66
2024/01/02 07:43:52;;;;;;;0.45;0.30;;;5.70;99.90;;;;;;5061378;28;20127;-66
2024/01/02 07:46:24;;;;;;;1.23;0.55;;;5.70;99.90;;;;;;5057161;28;20041;-66
2024/01/02 07:48:56;;;;;;;0.35;0.20;;;5.70;99.90;;;;;;5058426;28;20040;-65
2024/01/02 07:51:28;;;;;;;0.30;0.20;;;5.70;99.90;;;;;;5061603;28;20048;-65
2024/01/02 07:54:01;;;;;;;0.60;0.28;;;5.80;99.90;;;;;;5052305;28;20045;-66
2024/01/02 07:56:32;;;;;;;0.68;0.30;;;5.80;99.90;;;;;;5054740;28;20041;-66
2024/01/02 07:59:04;;;;;;;0.38;0.30;;;5.80;99.90;;;;;;5066134;28;20052;-65
2024/01/02 08:01:36;;;;;;;0.70;0.30;;;5.80;99.90;;;;;;5067135;28;20044;-66
2024/01/02 08:04:08;;;;;;;0.73;0.35;;;5.80;99.90;;;;;;5039109;28;20568;-65
2024/01/02 08:06:40;;;;;;;0.40;0.40;;;5.90;99.90;;;;;;5055684;28;20061;-68
2024/01/02 08:09:14;;;;;;;0.60;0.25;;;5.90;99.90;;;;;;5055060;28;20052;-67
2024/01/02 08:11:46;;;;;;;0.30;0.30;;;6.00;99.90;;;;;;5055634;28;20106;-67
2024/01/02 08:14:18;;;;;;;0.55;0.25;;;6.10;99.90;;;;;;5057292;28;20073;-68
2024/01/02 08:16:50;;;;;;;0.73;0.60;;;6.10;99.90;;;;;;5058110;28;20044;-67
2024/01/02 08:19:22;;;;;;;1.73;0.40;;;6.20;99.90;;;;;;5052191;28;20050;-67
2024/01/02 08:21:54;;;;;;;0.55;0.20;;;6.30;99.90;;;;;;5056879;28;20072;-66
2024/01/02 08:24:26;;;;;;;0.98;0.35;;;6.40;99.90;;;;;;5059456;28;20037;-66
2024/01/02 08:26:58;;;;;;;1.20;0.40;;;6.50;99.90;;;;;;5054608;28;20048;-67
2024/01/02 08:29:30;;;;;;;1.02;0.40;;;6.50;99.90;;;;;;5062959;28;20131;-66
2024/01/02 08:31:57;;;;;;;1.45;0.45;;;6.50;99.90;;;;;;5054198;28;20048;-63
2024/01/02 08:34:23;;;;;;;0.73;0.52;;;6.60;99.90;;;;;;5061660;28;20036;-65
2024/01/02 08:36:55;;;;;;;1.10;0.63;;;6.60;99.90;;;;;;5043608;28;20405;-66
2024/01/02 08:39:22;;;;;;;0.30;0.30;;;6.70;99.90;;;;;;5059489;28;20035;-66
2024/01/02 08:41:54;;;;;;;0.65;0.30;;;6.70;99.90;;;;;;5055323;28;20629;-66
2024/01/02 08:44:21;;;;;;;0.52;0.30;;;6.70;99.90;;;;;;5059170;28;20045;-66
2024/01/02 08:46:52;;;;;;;1.08;0.40;;;6.80;99.90;;;;;;5061516;28;20119;-66
2024/01/02 08:49:24;;;;;;;0.63;0.30;;;6.80;99.90;;;;;;5057362;28;20037;-66
2024/01/02 08:51:56;;;;;;;0.63;0.40;;;6.90;99.90;;;;;;5056627;28;20120;-66
2024/01/02 08:54:28;;;;;;;0.57;0.32;;;7.10;99.90;;;;;;5055500;28;20040;-66
2024/01/02 08:57:01;;;;;;;1.48;0.30;;;7.20;99.90;;;;;;5054289;28;20045;-66
2024/01/02 08:59:33;;;;;;;0.30;0.20;;;7.20;99.90;;;;;;5064491;28;20041;-65
2024/01/02 09:02:00;;;;;;;1.45;0.40;;;7.20;99.90;;;;;;5043543;28;20287;-67
2024/01/02 09:04:32;;;;;;;0.52;0.30;;;7.20;99.90;;;;;;5062609;28;20037;-66
2024/01/02 09:06:59;;;;;;;2.00;0.40;;;7.20;99.90;;;;;;5059718;28;20069;-66
2024/01/02 09:09:25;;;;;;;0.40;0.30;;;7.30;99.90;;;;;;5064700;28;20411;-66
2024/01/02 09:11:57;;;;;;;0.52;0.20;;;7.40;99.90;;;;;;5063166;28;20040;-66
2024/01/02 09:14:30;;;;;;;0.40;0.25;;;7.40;99.90;;;;;;5055667;28;20055;-66
2024/01/02 09:17:03;;;;;;;0.63;0.30;;;7.40;99.90;;;;;;5054588;28;20136;-66
2024/01/02 09:19:34;;;;;;;1.70;0.30;;;7.40;99.90;;;;;;5050186;28;20043;-66
2024/01/02 09:22:06;;;;;;;0.20;0.20;;;7.50;99.90;;;;;;5067621;28;20055;-65
2024/01/02 09:24:33;;;;;;;0.73;0.32;;;7.40;99.90;;;;;;5056294;28;20045;-66
2024/01/02 09:27:02;;;;;;;0.20;0.20;;;7.50;99.90;;;;;;5063774;28;20401;-66
2024/01/02 09:29:34;;;;;;;;;;;7.40;99.90;;;;;;5073019;28;20048;-65
2024/01/02 09:32:01;;;;;;;0.65;0.20;;;7.40;99.90;;;;;;5063553;28;19926;-66
2024/01/02 09:34:33;;;;;;;0.30;0.20;;;7.30;99.90;;;;;;5055589;28;20123;-66
2024/01/02 09:37:06;;;;;;;0.60;0.30;;;7.30;99.90;;;;;;5060528;28;20045;-66
2024/01/02 09:39:37;;;;;;;1.58;0.30;;;7.30;99.90;;;;;;5056512;28;20060;-66
2024/01/02 09:42:31;;;;;;;0.60;0.30;;;7.30;99.90;;;;;;5060953;28;20040;-67
2024/01/02 09:45:17;;;;;;;5.80;0.70;;;7.30;99.90;;;;;;5069811;28;20044;-66
2024/01/02 09:48:34;;;;;;;0.40;0.30;;;7.20;99.90;;;;;;5050794;28;20044;-66
2024/01/02 09:51:35;;;;;;;2.35;0.40;;;7.20;99.90;;;;;;5053453;28;20056;-67
2024/01/02 09:54:21;;;;;;;0.50;0.30;;;7.30;99.90;;;;;;5038776;28;20044;-66
2024/01/02 09:57:10;;;;;;;0.60;0.40;;;7.30;99.90;;;;;;5066156;28;20044;-66
2024/01/02 09:59:39;;;;;;;;;;;7.20;99.90;;;;;;5061675;28;20591;-66
2024/01/02 10:02:20;;;;;;;1.80;0.80;;;7.30;99.90;;;;;;5066261;28;19920;-65
2024/01/02 10:04:48;;;;;;;0.38;0.28;;;7.30;99.90;;;;;;5072166;28;20399;-66
2024/01/02 10:07:50;;;;;;;0.40;0.20;;;7.40;99.90;;;;;;5058606;28;20416;-66
2024/01/02 10:10:33;;;;;;;0.95;0.30;;;7.40;99.90;;;;;;5062723;28;20043;-66
2024/01/02 10:13:24;;;;;;;0.88;0.50;;;7.50;99.90;;;;;;5031984;28;20057;-66
2024/01/02 10:16:23;;;;;;;0.45;0.40;;;7.50;99.90;;;;;;5049154;28;20049;-65
2024/01/02 10:19:07;;;;;;;2.03;0.40;;;7.50;99.90;;;;;;5035565;28;20051;-66
2024/01/02 10:21:42;;;;;;;0.43;0.20;;;7.60;99.90;;;;;;5054604;28;20045;-66
2024/01/02 10:24:31;;;;;;;0.28;0.20;;;7.60;99.90;;;;;;5062304;28;20040;-67
2024/01/02 10:27:04;;;;;;;0.50;0.30;;;7.60;99.90;;;;;;5092239;28;20048;-67
2024/01/02 10:30:06;;;;;;;0.30;0.28;;;7.60;99.90;;;;;;5060241;28;20067;-67
2024/01/02 10:33:13;;;;;;;0.20;0.20;;;7.60;99.90;;;;;;5044737;28;20053;-66
2024/01/02 10:35:50;;;;;;;0.75;0.32;;;7.60;99.90;;;;;;5050180;28;20052;-65
2024/01/02 10:38:26;;;;;;;0.77;0.50;;;7.60;99.90;;;;;;5061141;28;20037;-65
2024/01/02 10:41:06;;;;;;;0.60;0.47;;;7.60;99.90;;;;;;5035678;28;20545;-66
2024/01/02 10:43:47;;;;;;;0.50;0.30;;;7.60;99.90;;;;;;5054920;28;20037;-65
2024/01/02 10:46:42;;;;;;;1.00;0.30;;;7.60;99.90;;;;;;5058233;28;20036;-66
2024/01/02 10:49:32;;;;;;;0.30;0.20;;;7.60;99.90;;;;;;5064091;28;20424;-66
2024/01/02 10:52:24;;;;;;;0.30;0.20;;;7.50;99.90;;;;;;5054958;28;20537;-65
2024/01/02 10:55:19;;;;;;;0.60;0.30;;;7.50;99.90;;;;;;5064267;28;20060;-65
2024/01/02 10:57:59;;;;;;;1.15;0.50;;;7.50;99.90;;;;;;5066847;28;20041;-65
2024/01/02 11:01:09;;;;;;;0.43;0.28;;;7.50;99.90;;;;;;5066970;28;20126;-66
2024/01/02 11:03:52;;;;;;;0.60;0.30;;;7.40;99.90;;;;;;5041936;28;20119;-67
2024/01/02 11:06:42;;;;;;;0.40;0.30;;;7.40;99.90;;;;;;5062495;28;20049;-68
2024/01/02 11:09:24;;;;;;;0.40;0.30;;;7.30;99.90;;;;;;5062632;28;20122;-66
2024/01/02 11:11:58;;;;;;;0.47;0.30;;;7.40;99.90;;;;;;5050047;28;20436;-71
2024/01/02 11:14:31;;;;;;;0.60;0.40;;;7.40;99.90;;;;;;5054836;28;20052;-69
2024/01/02 11:17:04;;;;;;;0.90;0.40;;;7.40;99.90;;;;;;5050686;28;20121;-68
2024/01/02 11:19:40;;;;;;;0.65;0.45;;;7.50;99.90;;;;;;5052898;28;20066;-68
2024/01/02 11:22:20;;;;;;;1.90;0.30;;;7.50;99.90;;;;;;5063890;28;20033;-68
2024/01/02 11:24:55;;;;;;;0.50;0.32;;;7.50;99.90;;;;;;5053122;28;20044;-68
2024/01/02 11:27:29;;;;;;;0.47;0.30;;;7.60;99.90;;;;;;5049464;28;20029;-68
2024/01/02 11:30:05;;;;;;;3.70;0.68;;;7.60;99.90;;;;;;5045533;28;20764;-67
2024/01/02 11:32:51;;;;;;;0.98;0.50;;;7.60;99.90;;;;;;5080837;28;20063;-67
2024/01/02 11:35:27;;;;;;;1.52;0.40;;;7.60;99.90;;;;;;5051178;28;20041;-67
2024/01/02 11:38:08;;;;;;;0.40;0.20;;;7.60;99.90;;;;;;5052448;28;20091;-70
2024/01/02 11:41:09;;;;;;;0.50;0.30;;;7.70;99.90;;;;;;5047072;28;20040;-67
2024/01/02 11:43:59;;;;;;;0.63;0.30;;;7.70;99.90;;;;;;5078905;28;20047;-67
2024/01/02 11:46:29;;;;;;;0.80;0.40;;;7.70;99.90;;;;;;5053472;28;20045;-67
2024/01/02 11:49:11;;;;;;;0.65;0.40;;;7.70;99.90;;;;;;5059579;28;20987;-68
2024/01/02 11:51:55;;;;;;;0.40;0.22;;;7.70;99.90;;;;;;5049837;28;20525;-68
2024/01/02 11:54:46;;;;;;;2.15;0.20;;;7.70;99.90;;;;;;5079553;28;20048;-67
2024/01/02 11:57:44;;;;;;;0.32;0.30;;;7.80;99.90;;;;;;5050369;28;20622;-67
2024/01/02 12:00:19;;;;;;;0.30;0.20;;;7.80;99.90;;;;;;5054144;28;20052;-67
2024/01/02 12:03:22;;;;;;;0.60;0.20;;;7.80;99.90;;;;;;5062830;28;20509;-67
2024/01/02 12:05:54;;;;;;;0.90;0.32;;;7.90;99.90;;;;;;5052043;28;20116;-68
2024/01/02 12:08:27;;;;;;;0.50;0.20;;;7.90;99.90;;;;;;5064091;28;20048;-67
2024/01/02 12:11:05;;;;;;;0.40;0.35;;;7.90;99.90;;;;;;5056027;28;20562;-67
2024/01/02 12:13:50;;;;;;;0.30;0.20;;;7.90;99.90;;;;;;5089922;28;20100;-67
2024/01/02 12:16:22;;;;;;;1.45;0.20;;;7.90;99.90;;;;;;5059321;28;20058;-68
2024/01/02 12:18:56;;;;;;;1.38;0.28;;;8.00;99.90;;;;;;5059007;28;20087;-67
2024/01/02 12:21:32;;;;;;;0.73;0.30;;;8.00;99.90;;;;;;5093463;28;20049;-68
2024/01/02 12:24:05;;;;;;;0.35;0.30;;;8.00;99.90;;;;;;5051853;28;20040;-66
2024/01/02 12:26:38;;;;;;;0.50;0.40;;;8.00;99.90;;;;;;5055641;28;20045;-68
2024/01/02 12:29:06;;;;;;;0.88;0.30;;;8.00;99.90;;;;;;5060164;28;20497;-67
2024/01/02 12:31:45;;;;;;;0.38;0.30;;;8.10;99.90;;;;;;5057697;28;20055;-67
2024/01/02 12:34:40;;;;;;;0.65;0.30;;;8.10;99.90;;;;;;5062768;28;20133;-67
2024/01/02 12:37:25;;;;;;;0.40;0.22;;;8.10;99.90;;;;;;5059937;28;20101;-67
2024/01/02 12:40:03;;;;;;;0.20;0.20;;;8.10;99.90;;;;;;5050514;28;20045;-67
2024/01/02 12:42:40;;;;;;;0.80;0.30;;;8.10;99.90;;;;;;5057251;28;20109;-67
2024/01/02 12:45:17;;;;;;;0.45;0.30;;;8.20;99.90;;;;;;5056427;28;20056;-67
2024/01/02 12:47:55;;;;;;;0.52;0.20;;;8.20;99.90;;;;;;5057142;28;20501;-67
2024/01/02 12:50:21;;;;;;;0.50;0.27;;;8.20;99.90;;;;;;5051739;28;20485;-67
2024/01/02 12:52:55;;;;;;;1.10;0.40;;;8.20;99.90;;;;;;5053381;28;20048;-66
2024/01/02 12:55:28;;;;;;;0.30;0.20;;;8.20;99.90;;;;;;5055617;28;20044;-67
2024/01/02 12:58:00;;;;;;;0.80;0.30;;;8.20;99.90;;;;;;5057956;28;20052;-67
2024/01/02 13:00:32;;;;;;;1.05;0.40;;;8.20;99.90;;;;;;5091888;28;20413;-68
2024/01/02 13:03:06;;;;;;;0.45;0.40;;;8.20;99.90;;;;;;5059156;28;20531;-67
2024/01/02 13:05:39;;;;;;;0.35;0.30;;;8.30;99.90;;;;;;5059349;28;20037;-67
2024/01/02 13:08:18;;;;;;;1.00;0.37;;;8.30;99.90;;;;;;5068936;28;20143;-68
2024/01/02 13:10:50;;;;;;;1.10;0.35;;;8.30;99.90;;;;;;5056664;28;20283;-67
2024/01/02 13:13:22;;;;;;;0.40;0.20;;;8.30;99.90;;;;;;5059653;28;20041;-68
2024/01/02 13:15:52;;;;;;;0.63;0.40;;;8.30;99.90;;;;;;5056500;28;20037;-67
2024/01/02 13:18:25;;;;;;;0.77;0.30;;;8.30;99.90;;;;;;5088580;28;20037;-67
2024/01/02 13:20:58;;;;;;;0.80;0.30;;;8.30;99.90;;;;;;5053832;28;20136;-67
2024/01/02 13:23:30;;;;;;;0.25;0.20;;;8.30;99.90;;;;;;5034323;28;20045;-67
2024/01/02 13:26:01;;;;;;;0.47;0.30;;;8.40;99.90;;;;;;5056949;28;20135;-67
2024/01/02 13:28:28;;;;;;;0.52;0.40;;;8.30;99.90;;;;;;5056739;28;20471;-67
2024/01/02 13:30:57;;;;;;;0.38;0.20;;;8.30;99.90;;;;;;5042183;28;20056;-67